ESMK/KID METAR and TAF weather

Enter ICAO airport designator
Station Type Date Time Source
ESMK METAR 2021/04/17 02:20 UTC NOAA

ESMK 170220Z AUTO 35007KT 9999 SCT080/// OVC098/// 06/M03 Q1024


Station Type Date Time Source
ESMK Decoded METAR 2021/04/17 02:20 UTC NOAA

Kristianstad / Everod, Sweden (ESMK) 55-55N 014-05E
Apr 16, 2021 - 10:20 PM EDT / 2021.04.17 0220 UTC
Wind: from the N (350 degrees) at 8 MPH (7 KT):0
Visibility: greater than 7 mile(s):0
Sky conditions: overcast
Temperature: 42 F (6 C)
Dew Point: 26 F (-3 C)
Relative Humidity: 52%
Pressure (altimeter): 30.24 in. Hg (1024 hPa)
ob: ESMK 170220Z AUTO 35007KT 9999 SCT080/// OVC098/// 06/M03 Q1024
cycle: 2

Station Type Date Time Source
ESMK TAF 2020/07/19 09:57 UTC NOAA

TAF TAF ESMK 190930Z 1909/1921 13008KT CAVOK PROB40 1910/1919 SCT030TCU

Example: see airport list